Time;durP1;ratioP1;P1;durP2;ratioP2;P2;SDS_P1;SDS_P2;PMS_P1;PMS_P2;Temp;Humidity;BMP_temperature;BMP_pressure;BME280_temperature;BME280_humidity;BME280_pressure;Samples;Min_cycle;Max_cycle;Signal;HPM_P1;HPM_P2
2022/09/18 00:01:59;176224.00;0.59;304.99;71539.00;0.24;124.42;;;;;12.70;1.90;;;;;;2256013;61;1365;-82
2022/09/18 00:04:26;282621.00;0.94;488.04;68357.00;0.23;118.92;;;;;12.70;1.00;;;;;;2255807;61;1931;-82
2022/09/18 00:06:53;171623.00;0.57;297.06;74435.00;0.25;129.42;;;;;12.70;1.00;;;;;;2259307;61;1121;-82
2022/09/18 00:09:21;270643.00;0.90;467.45;108374.00;0.36;188.02;;;;;12.70;1.20;;;;;;2259714;61;1119;-82
2022/09/18 00:11:50;190840.00;0.64;330.15;72487.00;0.24;126.06;;;;;12.90;1.00;;;;;;2259876;61;1333;-81
2022/09/18 00:14:20;194051.00;0.65;335.68;75674.00;0.25;131.56;;;;;12.90;1.00;;;;;;2260054;61;1093;-83
2022/09/18 00:16:47;188247.00;0.63;325.69;68375.00;0.23;118.95;;;;;13.10;1.00;;;;;;2261700;61;1094;-84
2022/09/18 00:19:15;372189.00;1.24;642.00;75304.00;0.25;130.92;;;;;13.30;1.30;;;;;;2353137;40;3693;-87
2022/09/18 00:21:43;809860.00;2.70;1398.32;79335.00;0.26;137.89;;;;;13.00;1.50;;;;;;2263592;61;1773;-88
2022/09/18 00:24:11;309784.00;1.03;534.74;75082.00;0.25;130.54;;;;;12.70;1.00;;;;;;2264128;61;2004;-88
2022/09/18 00:29:08;782817.00;2.61;1351.17;68083.00;0.23;118.45;;;;;12.10;3.70;;;;;;2270056;61;1426;-87
2022/09/18 00:31:36;486027.00;1.62;837.77;71151.00;0.24;123.75;;;;;11.90;4.20;;;;;;2268111;61;1308;-88
2022/09/18 00:34:06;617883.00;2.06;1065.11;136803.00;0.46;237.06;;;;;11.90;4.60;;;;;;2268067;61;1527;-88
2022/09/18 00:36:34;216309.00;0.72;373.99;82792.00;0.28;143.86;;;;;12.00;4.50;;;;;;2268170;61;1674;-88
2022/09/18 00:39:01;354441.00;1.18;611.49;74544.00;0.25;129.61;;;;;12.00;6.00;;;;;;2268064;61;1023;-88
2022/09/18 00:41:30;176648.00;0.59;305.72;67502.00;0.23;117.44;;;;;12.00;5.00;;;;;;2268150;61;1320;-89
2022/09/18 00:44:32;434175.00;1.45;748.57;62544.00;0.21;108.87;;;;;12.20;5.10;;;;;;2268142;61;1994;-88
2022/09/18 00:47:18;271367.00;0.90;468.69;15319.00;0.05;27.16;;;;;12.20;4.80;;;;;;2268103;61;1011;-87
2022/09/18 00:49:50;383768.00;1.28;661.90;53878.00;0.18;93.89;;;;;12.40;4.90;;;;;;2267596;61;1325;-88
2022/09/18 00:52:19;284232.00;0.95;490.81;3411.00;0.01;6.53;;;;;12.70;4.60;;;;;;2268110;61;1350;-87
2022/09/18 00:54:50;0.00;0.00;0.62;0.00;0.00;0.62;;;;;12.80;3.00;;;;;;2268125;61;1128;-88
2022/09/18 00:57:22;0.00;0.00;0.62;0.00;0.00;0.62;;;;;12.70;3.10;;;;;;2268144;61;1109;-87
2022/09/18 00:59:52;304780.00;1.02;526.14;79191.00;0.26;137.64;;;;;12.90;1.40;;;;;;2268726;61;1516;-87
2022/09/18 01:02:19;90515.00;0.30;157.20;0.00;0.00;0.62;;;;;13.20;1.00;;;;;;2268722;61;1433;-87
2022/09/18 01:04:48;529198.00;1.76;912.11;0.00;0.00;0.62;;;;;13.20;1.20;;;;;;2268773;61;1915;-87
2022/09/18 01:07:28;166865.00;0.56;288.87;0.00;0.00;0.62;;;;;13.50;1.00;;;;;;2268760;61;1043;-89
2022/09/18 01:10:10;53121.00;0.18;92.58;0.00;0.00;0.62;;;;;13.50;1.00;;;;;;2268825;61;1093;-88
2022/09/18 01:12:42;58373.00;0.19;101.66;0.00;0.00;0.62;;;;;13.30;1.00;;;;;;2268704;61;1462;-88
2022/09/18 01:15:19;87781.00;0.29;152.48;0.00;0.00;0.62;;;;;13.50;1.00;;;;;;2268767;61;970;-88
2022/09/18 01:17:54;27566.00;0.09;48.37;0.00;0.00;0.62;;;;;13.70;1.60;;;;;;2268783;61;1015;-86
2022/09/18 01:20:40;226091.00;0.75;390.82;0.00;0.00;0.62;;;;;13.80;1.00;;;;;;2268691;61;1121;-89
2022/09/18 01:23:39;94630.00;0.32;164.30;0.00;0.00;0.62;;;;;14.00;1.00;;;;;;2268770;61;1009;-87
2022/09/18 01:26:27;12267.00;0.04;21.88;0.00;0.00;0.62;;;;;14.40;1.00;;;;;;2268776;61;1051;-89
2022/09/18 01:28:59;112510.00;0.38;195.16;0.00;0.00;0.62;;;;;14.70;1.00;;;;;;2264852;61;1070;-86
2022/09/18 01:31:30;157258.00;0.52;272.31;0.00;0.00;0.62;;;;;14.50;1.00;;;;;;2264655;61;1450;-87
2022/09/18 01:34:02;91536.00;0.31;158.96;0.00;0.00;0.62;;;;;14.70;1.00;;;;;;2264639;61;1064;-87
2022/09/18 01:36:35;77087.00;0.26;134.01;0.00;0.00;0.62;;;;;14.80;1.00;;;;;;2264723;61;955;-87
2022/09/18 01:39:14;202714.00;0.68;350.60;0.00;0.00;0.62;;;;;15.10;1.00;;;;;;2264583;61;1272;-87
2022/09/18 01:41:49;84599.00;0.28;146.98;0.00;0.00;0.62;;;;;15.20;1.00;;;;;;2264496;61;1329;-87
2022/09/18 01:44:23;101810.00;0.34;176.70;0.00;0.00;0.62;;;;;15.40;1.00;;;;;;2264603;61;1994;-88
2022/09/18 01:46:52;101906.00;0.34;176.86;0.00;0.00;0.62;;;;;15.20;1.00;;;;;;2264657;61;1258;-87
2022/09/18 01:49:23;293181.00;0.98;506.20;89311.00;0.30;155.12;;;;;15.20;1.00;;;;;;2264591;61;1116;-87
2022/09/18 01:51:55;152956.00;0.51;264.90;0.00;0.00;0.62;;;;;15.10;1.00;;;;;;2264575;61;1491;-87
2022/09/18 01:54:27;25636.00;0.09;45.03;0.00;0.00;0.62;;;;;15.10;1.00;;;;;;2264481;61;1110;-86
2022/09/18 01:56:57;216618.00;0.72;374.52;0.00;0.00;0.62;;;;;14.70;1.00;;;;;;2264464;61;1068;-86
2022/09/18 01:59:32;149603.00;0.50;259.12;0.00;0.00;0.62;;;;;14.80;1.00;;;;;;2264630;61;1572;-87
2022/09/18 02:02:03;103558.00;0.35;179.71;0.00;0.00;0.62;;;;;14.60;1.00;;;;;;2264574;61;1396;-89
2022/09/18 02:04:35;32214.00;0.11;56.42;0.00;0.00;0.62;;;;;14.50;1.00;;;;;;2264535;61;1998;-89
2022/09/18 02:07:13;3854.00;0.01;7.30;0.00;0.00;0.62;;;;;14.40;1.00;;;;;;2264554;61;1051;-87
2022/09/18 02:09:40;6607.00;0.02;12.07;0.00;0.00;0.62;;;;;14.40;1.00;;;;;;2264437;61;1004;-87
2022/09/18 02:12:11;44078.00;0.15;76.94;0.00;0.00;0.62;;;;;14.40;1.00;;;;;;2264441;61;1590;-88
2022/09/18 02:14:43;0.00;0.00;0.62;0.00;0.00;0.62;;;;;14.60;1.00;;;;;;2264544;61;1068;-88
2022/09/18 02:17:17;179697.00;0.60;310.97;0.00;0.00;0.62;;;;;15.00;1.00;;;;;;2264509;61;1037;-87
2022/09/18 02:19:51;176586.00;0.59;305.61;0.00;0.00;0.62;;;;;14.90;1.00;;;;;;2264512;61;1039;-87
2022/09/18 02:22:23;48424.00;0.16;84.46;0.00;0.00;0.62;;;;;14.60;1.00;;;;;;2264424;61;1353;-88
2022/09/18 02:24:53;47307.00;0.16;82.53;0.00;0.00;0.62;;;;;14.70;1.00;;;;;;2264391;61;1920;-87
2022/09/18 02:27:23;134592.00;0.45;233.25;0.00;0.00;0.62;;;;;14.90;1.00;;;;;;2264433;61;1046;-87
2022/09/18 02:29:52;49664.00;0.17;86.61;0.00;0.00;0.62;;;;;14.80;1.00;;;;;;2264381;61;948;-87
2022/09/18 02:32:19;188065.00;0.63;325.38;0.00;0.00;0.62;;;;;14.40;1.00;;;;;;2264445;61;1404;-88
2022/09/18 02:34:46;43696.00;0.15;76.28;0.00;0.00;0.62;;;;;14.20;1.00;;;;;;2264443;61;1134;-88
2022/09/18 02:37:30;38207.00;0.13;66.79;0.00;0.00;0.62;;;;;14.00;1.00;;;;;;2264492;61;1029;-89
2022/09/18 02:40:11;118603.00;0.40;205.67;0.00;0.00;0.62;;;;;14.20;1.00;;;;;;2264529;61;1108;-88
2022/09/18 02:42:47;29054.00;0.10;50.95;0.00;0.00;0.62;;;;;14.00;1.00;;;;;;2264316;61;1306;-89
2022/09/18 02:45:27;5123.00;0.02;9.50;0.00;0.00;0.62;;;;;14.40;1.00;;;;;;2264541;61;1986;-86
2022/09/18 02:48:11;47712.00;0.16;83.23;0.00;0.00;0.62;;;;;14.20;1.00;;;;;;2264406;61;2056;-86
2022/09/18 02:50:50;35146.00;0.12;61.49;0.00;0.00;0.62;;;;;14.60;1.00;;;;;;2264317;61;1728;-88
2022/09/18 02:53:25;0.00;0.00;0.62;0.00;0.00;0.62;;;;;14.90;1.00;;;;;;2264472;61;976;-88
2022/09/18 02:55:59;60373.00;0.20;105.12;0.00;0.00;0.62;;;;;14.40;1.00;;;;;;2264342;61;1018;-88
2022/09/18 02:58:30;31886.00;0.11;55.85;0.00;0.00;0.62;;;;;14.10;1.00;;;;;;2264429;61;1162;-88
2022/09/18 03:01:04;144821.00;0.48;250.88;0.00;0.00;0.62;;;;;13.90;1.00;;;;;;2264365;61;1374;-88
2022/09/18 03:03:33;94592.00;0.32;164.24;0.00;0.00;0.62;;;;;14.00;1.00;;;;;;2264453;61;1079;-86
2022/09/18 03:06:00;21438.00;0.07;37.76;0.00;0.00;0.62;;;;;14.20;1.00;;;;;;2264290;61;1999;-89
2022/09/18 03:08:27;126896.00;0.42;219.98;0.00;0.00;0.62;;;;;14.30;1.00;;;;;;2264307;61;1021;-87
2022/09/18 03:10:54;0.00;0.00;0.62;0.00;0.00;0.62;;;;;14.60;1.00;;;;;;2264228;61;1410;-87
2022/09/18 03:13:21;269202.00;0.90;464.97;1334.00;0.00;2.93;;;;;15.00;1.00;;;;;;2264248;61;1020;-87
2022/09/18 03:15:48;157880.00;0.53;273.39;0.00;0.00;0.62;;;;;14.90;1.00;;;;;;2264288;61;1121;-87
2022/09/18 03:18:16;126460.00;0.42;219.22;0.00;0.00;0.62;;;;;15.00;1.00;;;;;;2264240;61;2332;-87
2022/09/18 03:20:43;101707.00;0.34;176.52;0.00;0.00;0.62;;;;;15.10;1.00;;;;;;2264269;61;1410;-89
2022/09/18 03:23:10;143967.00;0.48;249.41;0.00;0.00;0.62;;;;;15.50;1.00;;;;;;2264326;61;1127;-88
2022/09/18 03:25:37;14457.00;0.05;25.67;0.00;0.00;0.62;;;;;15.50;1.00;;;;;;2264144;61;1912;-89
2022/09/18 03:28:04;11935.00;0.04;21.30;0.00;0.00;0.62;;;;;15.20;1.00;;;;;;2264187;61;1360;-89
2022/09/18 03:30:32;103433.00;0.34;179.50;0.00;0.00;0.62;;;;;15.00;1.00;;;;;;2264208;61;999;-87
2022/09/18 03:32:58;1548.00;0.01;3.30;0.00;0.00;0.62;;;;;14.90;1.00;;;;;;2264287;61;1249;-88
2022/09/18 03:35:27;48307.00;0.16;84.26;0.00;0.00;0.62;;;;;14.80;1.00;;;;;;2264272;61;1155;-88
2022/09/18 03:37:54;263042.00;0.88;454.38;9019.00;0.03;16.25;;;;;14.60;1.00;;;;;;2264307;61;991;-88
2022/09/18 03:40:22;10083.00;0.03;18.09;0.00;0.00;0.62;;;;;14.50;1.00;;;;;;2264201;61;1035;-87
2022/09/18 03:42:49;163424.00;0.54;282.94;5040.00;0.02;9.35;;;;;14.20;1.00;;;;;;2264161;61;1449;-88
2022/09/18 03:45:16;120788.00;0.40;209.44;0.00;0.00;0.62;;;;;14.10;1.00;;;;;;2264232;61;2006;-87
2022/09/18 03:47:43;184262.00;0.61;318.83;0.00;0.00;0.62;;;;;13.90;1.00;;;;;;2264232;61;1590;-87
2022/09/18 03:50:11;86443.00;0.29;150.17;0.00;0.00;0.62;;;;;14.10;1.00;;;;;;2264227;61;1052;-88
2022/09/18 03:52:40;194054.00;0.65;335.69;0.00;0.00;0.62;;;;;14.10;1.00;;;;;;2264225;61;1533;-87
2022/09/18 03:55:07;174581.00;0.58;302.16;0.00;0.00;0.62;;;;;13.90;1.00;;;;;;2264249;61;1739;-88
2022/09/18 03:57:34;123030.00;0.41;213.31;0.00;0.00;0.62;;;;;13.50;1.00;;;;;;2264202;61;1038;-88
2022/09/18 04:00:01;143999.00;0.48;249.46;0.00;0.00;0.62;;;;;13.50;1.00;;;;;;2264274;61;1035;-88
2022/09/18 04:02:28;324842.00;1.08;560.62;29918.00;0.10;52.44;;;;;13.40;1.00;;;;;;2264206;61;1372;-88
2022/09/18 04:04:55;47655.00;0.16;83.13;0.00;0.00;0.62;;;;;13.50;1.00;;;;;;2264197;61;1996;-87
2022/09/18 04:07:22;36680.00;0.12;64.14;0.00;0.00;0.62;;;;;13.50;1.00;;;;;;2264233;61;1123;-88
2022/09/18 04:09:50;170541.00;0.57;295.20;0.00;0.00;0.62;;;;;13.60;1.00;;;;;;2264094;61;1448;-89
2022/09/18 04:12:17;177874.00;0.59;307.83;0.00;0.00;0.62;;;;;13.80;1.00;;;;;;2264129;61;1363;-90
2022/09/18 04:14:44;82734.00;0.28;143.76;0.00;0.00;0.62;;;;;13.50;1.00;;;;;;2264153;61;1052;-87
2022/09/18 04:17:11;96560.00;0.32;167.63;0.00;0.00;0.62;;;;;13.70;1.00;;;;;;2264203;61;935;-86
2022/09/18 04:19:38;185156.00;0.62;320.37;1014.00;0.00;2.38;;;;;13.40;1.00;;;;;;2264206;61;1035;-87
2022/09/18 04:22:05;114321.00;0.38;198.29;38034.00;0.13;66.49;;;;;13.50;1.00;;;;;;2264195;61;1396;-89
2022/09/18 04:24:31;86301.00;0.29;149.92;0.00;0.00;0.62;;;;;13.50;1.00;;;;;;2264059;61;1994;-87
2022/09/18 04:27:00;107659.00;0.36;186.79;0.00;0.00;0.62;;;;;13.50;1.00;;;;;;2264080;61;1037;-88
2022/09/18 04:29:27;26069.00;0.09;45.78;0.00;0.00;0.62;;;;;13.90;1.00;;;;;;2264177;61;1747;-87
2022/09/18 04:31:53;131571.00;0.44;228.04;0.00;0.00;0.62;;;;;13.70;1.00;;;;;;2264037;61;1335;-89
2022/09/18 04:34:20;224913.00;0.75;388.80;0.00;0.00;0.62;;;;;13.60;1.00;;;;;;2264334;61;1121;-89
2022/09/18 04:36:47;116941208.00;389.80;64777880.00;0.00;0.00;0.62;;;;;13.60;1.00;;;;;;2264919;61;1084;-88
2022/09/18 04:39:14;264327.00;0.88;456.59;0.00;0.00;0.62;;;;;13.50;1.00;;;;;;2264850;61;1013;-88
2022/09/18 04:41:44;119882.00;0.40;207.88;0.00;0.00;0.62;;;;;13.60;1.00;;;;;;2264795;61;1372;-89
2022/09/18 04:44:12;71319.00;0.24;124.04;0.00;0.00;0.62;;;;;13.90;1.00;;;;;;2264765;61;1017;-87
2022/09/18 04:46:39;129891.00;0.43;225.14;0.00;0.00;0.62;;;;;13.90;1.00;;;;;;2264811;61;2011;-88
2022/09/18 04:49:06;51805.00;0.17;90.31;0.00;0.00;0.62;;;;;13.90;1.00;;;;;;2264779;61;1013;-88
2022/09/18 04:51:33;90025.00;0.30;156.35;0.00;0.00;0.62;;;;;13.70;1.00;;;;;;2264775;61;1432;-88
2022/09/18 04:54:00;174435.00;0.58;301.91;0.00;0.00;0.62;;;;;13.50;1.00;;;;;;2264814;61;954;-89
2022/09/18 04:56:27;162452.00;0.54;281.26;0.00;0.00;0.62;;;;;13.90;1.00;;;;;;2264705;61;1623;-88
2022/09/18 04:58:54;167491.00;0.56;289.94;0.00;0.00;0.62;;;;;14.00;1.00;;;;;;2264777;61;2052;-87
2022/09/18 05:01:22;0.00;0.00;0.62;0.00;0.00;0.62;;;;;13.80;1.00;;;;;;2264789;61;1306;-86
2022/09/18 05:03:49;129883.00;0.43;225.13;0.00;0.00;0.62;;;;;13.90;1.00;;;;;;2264762;61;1067;-86
2022/09/18 05:06:16;128659.00;0.43;223.02;0.00;0.00;0.62;;;;;13.90;1.00;;;;;;2264784;61;2002;-86
2022/09/18 05:08:43;124853.00;0.42;216.45;14307.00;0.05;25.41;;;;;13.80;1.00;;;;;;2264746;61;1106;-88
2022/09/18 05:11:10;278237.00;0.93;480.51;0.00;0.00;0.62;;;;;13.70;1.00;;;;;;2264734;61;1263;-87
2022/09/18 05:13:38;201104.00;0.67;347.82;0.00;0.00;0.62;;;;;13.90;1.00;;;;;;2264786;61;1751;-88
2022/09/18 05:16:05;40237.00;0.13;70.30;0.00;0.00;0.62;;;;;13.90;1.00;;;;;;2264746;61;1176;-87
2022/09/18 05:18:33;139260.00;0.46;241.30;0.00;0.00;0.62;;;;;13.80;1.00;;;;;;2264703;61;1068;-88
2022/09/18 05:21:01;336863.00;1.12;581.28;78323.00;0.26;136.14;;;;;14.10;1.00;;;;;;2264661;61;1431;-89
2022/09/18 05:23:28;25099.00;0.08;44.10;0.00;0.00;0.62;;;;;14.20;1.00;;;;;;2264651;61;1048;-87
2022/09/18 05:25:55;67234.00;0.22;116.98;0.00;0.00;0.62;;;;;14.50;1.00;;;;;;2264630;61;2008;-87
2022/09/18 05:28:22;10906.00;0.04;19.52;0.00;0.00;0.62;;;;;14.40;1.00;;;;;;2264632;61;1008;-86
2022/09/18 05:30:49;98281.00;0.33;170.60;0.00;0.00;0.62;;;;;13.80;1.00;;;;;;2264701;61;1374;-88
2022/09/18 05:33:16;64328.00;0.21;111.96;0.00;0.00;0.62;;;;;13.80;1.00;;;;;;2264649;61;1560;-87
2022/09/18 05:35:44;49027.00;0.16;85.50;0.00;0.00;0.62;;;;;13.90;1.00;;;;;;2264605;61;936;-86
2022/09/18 05:38:12;23783.00;0.08;41.82;0.00;0.00;0.62;;;;;13.80;1.00;;;;;;2264576;61;1107;-87
2022/09/18 05:40:39;168096.00;0.56;290.99;0.00;0.00;0.62;;;;;13.70;1.00;;;;;;2264532;61;1391;-86
2022/09/18 05:43:07;0.00;0.00;0.62;0.00;0.00;0.62;;;;;13.40;1.00;;;;;;2264610;61;1143;-86
2022/09/18 05:45:34;163545.00;0.55;283.15;0.00;0.00;0.62;;;;;13.30;1.00;;;;;;2264272;61;1996;-87
2022/09/18 05:48:04;615071.00;2.05;1060.25;119594.00;0.40;207.38;;;;;13.50;1.00;;;;;;2264532;61;986;-88
2022/09/18 05:50:32;24469.00;0.08;43.01;0.00;0.00;0.62;;;;;13.80;1.60;;;;;;2264590;61;1147;-87
2022/09/18 05:53:02;71562.00;0.24;124.46;0.00;0.00;0.62;;;;;13.70;1.00;;;;;;2264613;61;1031;-87
2022/09/18 05:55:30;74873.00;0.25;130.18;0.00;0.00;0.62;;;;;13.90;1.00;;;;;;2264556;61;1651;-87
2022/09/18 05:57:59;21801.00;0.07;38.39;0.00;0.00;0.62;;;;;13.90;1.00;;;;;;2264551;61;1663;-88
2022/09/18 06:00:28;46718.00;0.16;81.51;0.00;0.00;0.62;;;;;13.60;1.00;;;;;;2264472;61;1109;-87
2022/09/18 06:02:57;41404.00;0.14;72.32;0.00;0.00;0.62;;;;;13.40;1.00;;;;;;2264456;61;1286;-87
2022/09/18 06:05:25;87166.00;0.29;151.41;0.00;0.00;0.62;;;;;13.50;1.00;;;;;;2264470;61;1920;-86
2022/09/18 06:07:52;53885.00;0.18;93.90;0.00;0.00;0.62;;;;;13.40;1.00;;;;;;2264577;61;1092;-88
2022/09/18 06:10:22;126837.00;0.42;219.87;0.00;0.00;0.62;;;;;13.30;1.10;;;;;;2264477;61;2238;-88
2022/09/18 06:12:49;160902.00;0.54;278.59;0.00;0.00;0.62;;;;;13.30;2.20;;;;;;2264531;61;1408;-87
2022/09/18 06:15:17;38125.00;0.13;66.64;0.00;0.00;0.62;;;;;13.50;1.50;;;;;;2264538;61;1118;-86
2022/09/18 06:17:51;41928.00;0.14;73.22;0.00;0.00;0.62;;;;;13.40;1.00;;;;;;2264478;61;1136;-89
2022/09/18 06:20:18;425223.00;1.42;733.17;107505.00;0.36;186.52;;;;;13.30;1.00;;;;;;2264536;61;1083;-87
2022/09/18 06:22:45;173907.00;0.58;301.00;0.00;0.00;0.62;;;;;13.10;3.70;;;;;;2264254;61;1401;-88
2022/09/18 06:25:12;12538.00;0.04;22.35;0.00;0.00;0.62;;;;;13.20;1.40;;;;;;2264272;61;1908;-87
2022/09/18 06:27:40;6002.00;0.02;11.02;0.00;0.00;0.62;;;;;13.30;1.70;;;;;;2264456;61;1126;-87
2022/09/18 06:30:08;41395.00;0.14;72.30;0.00;0.00;0.62;;;;;13.60;1.50;;;;;;2264368;61;1007;-88
2022/09/18 06:32:35;160755.00;0.54;278.34;0.00;0.00;0.62;;;;;13.70;1.00;;;;;;2264402;61;1291;-87
2022/09/18 06:35:02;147411.00;0.49;255.35;0.00;0.00;0.62;;;;;13.70;1.00;;;;;;2264475;61;909;-88
2022/09/18 06:37:32;6893.00;0.02;12.57;0.00;0.00;0.62;;;;;13.50;1.00;;;;;;2264461;61;939;-87
2022/09/18 06:39:58;118523.00;0.40;205.53;0.00;0.00;0.62;;;;;13.60;1.00;;;;;;2264373;61;992;-87
2022/09/18 06:42:25;207783.00;0.69;359.32;0.00;0.00;0.62;;;;;13.70;1.00;;;;;;2264379;61;1357;-88
2022/09/18 06:44:54;146751.00;0.49;254.21;0.00;0.00;0.62;;;;;13.40;1.00;;;;;;2264189;61;1024;-87
2022/09/18 06:47:21;154707.00;0.52;267.92;0.00;0.00;0.62;;;;;13.60;1.70;;;;;;2264369;61;1936;-87
2022/09/18 06:49:48;146439.00;0.49;253.67;0.00;0.00;0.62;;;;;13.50;1.00;;;;;;2264369;61;1135;-88
2022/09/18 06:52:14;173236.00;0.58;299.84;0.00;0.00;0.62;;;;;13.60;1.00;;;;;;2264307;61;1281;-87
2022/09/18 06:54:41;120702.00;0.40;209.29;39545.00;0.13;69.10;;;;;14.00;1.00;;;;;;2264301;61;1091;-88
2022/09/18 06:57:08;194816.00;0.65;337.00;0.00;0.00;0.62;;;;;14.10;1.00;;;;;;2264320;61;1115;-89
2022/09/18 06:59:36;6610.00;0.02;12.08;0.00;0.00;0.62;;;;;14.30;1.00;;;;;;2264293;61;2043;-88
2022/09/18 07:02:05;166774.00;0.56;288.71;0.00;0.00;0.62;;;;;14.80;1.00;;;;;;2264337;61;1563;-88
2022/09/18 07:04:31;224029.00;0.75;387.28;0.00;0.00;0.62;;;;;14.60;1.00;;;;;;2264317;61;1119;-88
2022/09/18 07:06:58;170934.00;0.57;295.88;29392.00;0.10;51.53;;;;;14.90;1.00;;;;;;2264390;61;1912;-88
2022/09/18 07:09:25;94683.00;0.32;164.39;0.00;0.00;0.62;;;;;14.50;1.00;;;;;;2264372;61;1102;-88
2022/09/18 07:11:52;225613.00;0.75;390.00;0.00;0.00;0.62;;;;;14.50;1.00;;;;;;2264317;61;1402;-88
2022/09/18 07:14:19;74646.00;0.25;129.79;0.00;0.00;0.62;;;;;14.80;1.00;;;;;;2264283;61;1058;-88
2022/09/18 07:16:46;61771.00;0.21;107.54;0.00;0.00;0.62;;;;;14.80;1.00;;;;;;2264339;61;1087;-88
2022/09/18 07:19:14;142342.00;0.47;246.61;0.00;0.00;0.62;;;;;15.30;1.00;;;;;;2264356;61;1196;-90
2022/09/18 07:21:41;76661.00;0.26;133.27;0.00;0.00;0.62;;;;;15.20;1.00;;;;;;2264261;61;1280;-89
2022/09/18 07:24:08;81867.00;0.27;142.26;0.00;0.00;0.62;;;;;14.90;1.00;;;;;;2264274;61;1020;-89
2022/09/18 07:26:35;36408.00;0.12;63.67;0.00;0.00;0.62;;;;;14.90;1.00;;;;;;2264310;61;1991;-89
2022/09/18 07:29:01;76074.00;0.25;132.26;0.00;0.00;0.62;;;;;14.90;1.00;;;;;;2264235;61;1146;-88
2022/09/18 07:31:28;141339.00;0.47;244.88;0.00;0.00;0.62;;;;;14.80;1.00;;;;;;2264238;61;1355;-89
2022/09/18 07:33:55;121115.00;0.40;210.01;0.00;0.00;0.62;;;;;14.90;1.00;;;;;;2264202;61;1111;-88
2022/09/18 07:36:24;354317.00;1.18;611.28;54120.00;0.18;94.31;;;;;15.50;1.00;;;;;;2264020;61;990;-88
2022/09/18 07:38:51;112885.00;0.38;195.81;0.00;0.00;0.62;;;;;15.60;1.00;;;;;;2264080;61;1574;-87
2022/09/18 07:41:18;51844.00;0.17;90.38;0.00;0.00;0.62;;;;;15.50;1.00;;;;;;2264224;61;1376;-87
2022/09/18 07:43:48;210538.00;0.70;364.06;24243.00;0.08;42.62;;;;;15.20;1.00;;;;;;2264220;61;1056;-87
2022/09/18 07:46:15;69046.00;0.23;120.11;0.00;0.00;0.62;;;;;15.20;1.00;;;;;;2264056;61;2002;-88
2022/09/18 07:48:42;47612.00;0.16;83.06;0.00;0.00;0.62;;;;;15.20;1.00;;;;;;2264193;61;1065;-87
2022/09/18 07:51:09;180761.00;0.60;312.80;5419.00;0.02;10.01;;;;;15.70;1.00;;;;;;2264230;61;1283;-88
2022/09/18 07:53:37;0.00;0.00;0.62;0.00;0.00;0.62;;;;;15.70;1.00;;;;;;2264104;61;962;-88
2022/09/18 07:56:08;96548.00;0.32;167.61;0.00;0.00;0.62;;;;;15.60;1.00;;;;;;2272941;55;3733;-89
2022/09/18 07:58:34;176634.00;0.59;305.69;0.00;0.00;0.62;;;;;15.40;1.00;;;;;;2268307;61;944;-88
2022/09/18 08:01:02;160992.00;0.54;278.75;0.00;0.00;0.62;;;;;15.40;1.00;;;;;;2268216;61;1409;-87
2022/09/18 08:03:30;80832.00;0.27;140.47;0.00;0.00;0.62;;;;;15.50;1.00;;;;;;2268219;61;992;-87
2022/09/18 08:05:57;72601.00;0.24;126.25;0.00;0.00;0.62;;;;;15.10;1.00;;;;;;2268238;61;1991;-88
2022/09/18 08:08:25;138332.00;0.46;239.70;0.00;0.00;0.62;;;;;15.00;1.00;;;;;;2268416;61;1030;-90
2022/09/18 08:10:56;213985.00;0.71;369.99;44037.00;0.15;76.87;;;;;15.00;1.00;;;;;;2268961;61;1366;-88
2022/09/18 08:13:23;215884.00;0.72;373.26;0.00;0.00;0.62;;;;;15.00;1.00;;;;;;2268936;61;1610;-87
2022/09/18 08:15:50;122772.00;0.41;212.86;0.00;0.00;0.62;;;;;15.20;1.00;;;;;;2268906;61;1094;-89
2022/09/18 08:18:17;163404.00;0.54;282.90;0.00;0.00;0.62;;;;;15.50;1.00;;;;;;2268864;61;2533;-88
2022/09/18 08:20:44;95177.00;0.32;165.25;0.00;0.00;0.62;;;;;15.40;1.00;;;;;;2268928;61;1269;-87
2022/09/18 08:23:11;114465.00;0.38;198.53;0.00;0.00;0.62;;;;;15.40;1.00;;;;;;2268902;61;1063;-87
2022/09/18 08:25:40;50764.00;0.17;88.51;0.00;0.00;0.62;;;;;15.60;1.00;;;;;;2268844;61;1244;-88
2022/09/18 08:28:08;36714.00;0.12;64.20;0.00;0.00;0.62;;;;;15.70;1.00;;;;;;2268943;61;1086;-87
2022/09/18 08:30:37;86391.00;0.29;150.08;0.00;0.00;0.62;;;;;15.70;1.00;;;;;;2268907;61;1343;-87
2022/09/18 08:33:06;188518.00;0.63;326.16;0.00;0.00;0.62;;;;;14.90;1.00;;;;;;2268863;61;1663;-88
2022/09/18 08:35:32;0.00;0.00;0.62;0.00;0.00;0.62;;;;;14.50;1.00;;;;;;2268820;61;1025;-88
2022/09/18 08:38:00;5012.00;0.02;9.31;0.00;0.00;0.62;;;;;14.80;1.00;;;;;;2268871;61;1053;-87
2022/09/18 08:40:46;15104.00;0.05;26.79;0.00;0.00;0.62;;;;;15.20;1.00;;;;;;2268737;61;1232;-87
2022/09/18 08:43:26;23492.00;0.08;41.32;0.00;0.00;0.62;;;;;15.50;1.00;;;;;;2268798;61;1382;-88
2022/09/18 08:46:01;96020.00;0.32;166.70;0.00;0.00;0.62;;;;;15.80;1.00;;;;;;2268855;61;1984;-87
2022/09/18 08:48:32;190029.00;0.63;328.76;0.00;0.00;0.62;;;;;16.00;1.00;;;;;;2268807;61;2239;-87
2022/09/18 08:51:04;134584.00;0.45;233.23;0.00;0.00;0.62;;;;;16.40;1.00;;;;;;2268738;61;1466;-88
2022/09/18 08:53:39;46541.00;0.16;81.20;0.00;0.00;0.62;;;;;16.60;1.00;;;;;;2268819;61;1066;-86
2022/09/18 08:56:14;106065.00;0.35;184.04;0.00;0.00;0.62;;;;;16.80;1.00;;;;;;2268763;61;1068;-87
2022/09/18 08:58:48;172774.00;0.58;299.04;33597.00;0.11;58.81;;;;;16.90;1.00;;;;;;2268864;61;1004;-87
2022/09/18 09:01:17;107014.00;0.36;185.68;0.00;0.00;0.62;;;;;16.70;1.00;;;;;;2268779;61;1447;-85
2022/09/18 09:03:54;127189.00;0.42;220.48;0.00;0.00;0.62;;;;;16.90;1.00;;;;;;2268850;61;1026;-88
2022/09/18 09:06:42;23224.00;0.08;40.85;0.00;0.00;0.62;;;;;16.50;1.00;;;;;;2268784;61;1974;-86
2022/09/18 09:09:27;0.00;0.00;0.62;0.00;0.00;0.62;;;;;16.80;1.00;;;;;;2268745;61;1008;-87
2022/09/18 09:12:03;184256.00;0.61;318.82;17967.00;0.06;31.75;;;;;16.70;1.00;;;;;;2268737;61;1305;-86
2022/09/18 09:14:54;127624.00;0.43;221.23;0.00;0.00;0.62;;;;;16.80;1.00;;;;;;2268789;61;1032;-87
2022/09/18 09:17:38;0.00;0.00;0.62;0.00;0.00;0.62;;;;;17.00;1.00;;;;;;2268679;61;1019;-86
2022/09/18 09:20:19;130241.00;0.43;225.74;0.00;0.00;0.62;;;;;17.20;1.00;;;;;;2268657;61;1168;-87
2022/09/18 09:22:56;126748.00;0.42;219.72;0.00;0.00;0.62;;;;;17.20;1.00;;;;;;2268563;61;1465;-86
2022/09/18 09:25:29;156454.00;0.52;270.93;0.00;0.00;0.62;;;;;17.00;1.00;;;;;;2268678;61;961;-86
2022/09/18 09:28:03;94761.00;0.32;164.53;0.00;0.00;0.62;;;;;17.10;1.00;;;;;;2268689;61;1958;-86
2022/09/18 09:30:36;86527.00;0.29;150.31;0.00;0.00;0.62;;;;;16.70;1.00;;;;;;2268767;61;988;-88
2022/09/18 09:33:15;322094.00;1.07;555.90;53280.00;0.18;92.86;;;;;16.60;1.00;;;;;;2268727;61;1007;-88
2022/09/18 09:35:46;92227.00;0.31;160.15;0.00;0.00;0.62;;;;;16.50;1.00;;;;;;2268608;61;976;-87
2022/09/18 09:38:34;199284.00;0.66;344.69;0.00;0.00;0.62;;;;;16.60;1.00;;;;;;2268564;61;1059;-87
2022/09/18 09:41:12;138105632.00;460.35;106749728.00;138057296.00;460.19;106637568.00;;;;;16.20;1.00;;;;;;2268538;61;1477;-87
2022/09/18 09:43:46;137736.00;0.46;238.67;0.00;0.00;0.62;;;;;15.90;1.00;;;;;;2268673;61;1298;-87
2022/09/18 09:46:25;94811.00;0.32;164.61;0.00;0.00;0.62;;;;;15.70;1.00;;;;;;2268681;61;2008;-87
2022/09/18 09:49:01;446853.00;1.49;770.37;28137.00;0.09;49.36;;;;;16.10;1.00;;;;;;2268673;61;1008;-89
2022/09/18 09:51:41;134423.00;0.45;232.96;0.00;0.00;0.62;;;;;16.60;1.00;;;;;;2268611;61;1306;-87
2022/09/18 09:54:11;70802.00;0.24;123.15;0.00;0.00;0.62;;;;;17.20;1.00;;;;;;2268608;61;1039;-88
2022/09/18 09:56:46;46822.00;0.16;81.69;0.00;0.00;0.62;;;;;17.20;1.00;;;;;;2268550;61;1584;-90
2022/09/18 09:59:24;68681.00;0.23;119.48;0.00;0.00;0.62;;;;;17.30;1.00;;;;;;2268594;61;1140;-87
2022/09/18 10:01:59;240553.00;0.80;415.70;0.00;0.00;0.62;;;;;17.60;1.00;;;;;;2268617;61;1462;-86
2022/09/18 10:04:34;266791.00;0.89;460.83;79226.00;0.26;137.70;;;;;17.80;1.00;;;;;;2268581;61;1111;-86
2022/09/18 10:07:12;247265.00;0.82;427.25;37970.00;0.13;66.38;;;;;17.50;1.00;;;;;;2268568;61;2010;-88
2022/09/18 10:09:47;249404.00;0.83;430.93;0.00;0.00;0.62;;;;;17.30;1.00;;;;;;2268619;61;1102;-87
2022/09/18 10:12:24;126812.00;0.42;219.83;0.00;0.00;0.62;;;;;17.10;1.00;;;;;;2268564;61;1480;-87
2022/09/18 10:14:55;438934.00;1.46;756.75;110560.00;0.37;191.80;;;;;17.10;1.00;;;;;;2268526;61;999;-89